Time;durP1;ratioP1;P1;durP2;ratioP2;P2;SDS_P1;SDS_P2;PMS_P1;PMS_P2;Temp;Humidity;BMP_temperature;BMP_pressure;BME280_temperature;BME280_humidity;BME280_pressure;Samples;Min_cycle;Max_cycle;Signal;HPM_P1;HPM_P2
2022/07/16 00:02:22;;;;;;;;;;;18.60;78.40;;;;;;5036614;28;19932;-75
2022/07/16 00:04:50;;;;;;;;;;;18.70;78.40;;;;;;5037742;28;19928;-75
2022/07/16 00:07:19;;;;;;;;;;;18.60;78.50;;;;;;5036972;28;19943;-75
2022/07/16 00:09:46;;;;;;;;;;;18.60;78.50;;;;;;5004439;28;19921;-75
2022/07/16 00:12:14;;;;;;;;;;;18.50;78.60;;;;;;5037576;28;19921;-75
2022/07/16 00:14:41;;;;;;;;;;;18.50;78.90;;;;;;5003107;28;19931;-75
2022/07/16 00:17:09;;;;;;;;;;;18.50;78.80;;;;;;5004021;28;20271;-75
2022/07/16 00:19:36;;;;;;;;;;;18.40;78.80;;;;;;5037278;28;19921;-75
2022/07/16 00:22:04;;;;;;;;;;;18.30;78.70;;;;;;5036342;28;19928;-75
2022/07/16 00:24:31;;;;;;;;;;;18.40;78.90;;;;;;5004249;28;19928;-76
2022/07/16 00:26:58;;;;;;;;;;;18.30;79.00;;;;;;5018897;28;19921;-75
2022/07/16 00:29:26;;;;;;;;;;;18.30;79.20;;;;;;5019937;28;20348;-75
2022/07/16 00:31:54;;;;;;;;;;;18.30;78.90;;;;;;5019852;28;19932;-76
2022/07/16 00:34:22;;;;;;;;;;;18.30;79.20;;;;;;5036964;28;19921;-75
2022/07/16 00:36:51;;;;;;;;;;;18.20;79.40;;;;;;5055953;28;19932;-75
2022/07/16 00:39:19;;;;;;;;;;;18.20;79.90;;;;;;5056413;28;19940;-75
2022/07/16 00:41:47;;;;;;;;;;;18.10;79.60;;;;;;5054906;28;20256;-75
2022/07/16 00:44:16;;;;;;;;;;;18.10;79.50;;;;;;5055993;28;20354;-75
2022/07/16 00:46:44;;;;;;;;;;;18.10;79.50;;;;;;5056733;28;19929;-76
2022/07/16 00:49:13;;;;;;;;;;;18.10;79.70;;;;;;5038339;28;19925;-75
2022/07/16 00:51:42;;;;;;;;;;;18.00;80.10;;;;;;5056594;28;19928;-75
2022/07/16 00:54:09;;;;;;;;;;;18.00;79.60;;;;;;5038404;28;19921;-75
2022/07/16 00:56:37;;;;;;;;;;;18.00;79.90;;;;;;5056558;28;19921;-75
2022/07/16 00:59:04;;;;;;;;;;;18.00;79.90;;;;;;5056541;28;19925;-75
2022/07/16 01:01:32;;;;;;;;;;;17.90;80.10;;;;;;5054452;28;19924;-75
2022/07/16 01:04:03;;;;;;;;;;;17.90;80.20;;;;;;5057062;28;19921;-75
2022/07/16 01:06:31;;;;;;;;;;;17.90;80.10;;;;;;5055740;28;19921;-75
2022/07/16 01:08:59;;;;;;;;;;;17.80;80.40;;;;;;5054560;28;19928;-75
2022/07/16 01:11:26;;;;;;;;;;;17.70;80.50;;;;;;5055438;28;20270;-75
2022/07/16 01:13:54;;;;;;;;;;;17.70;80.70;;;;;;5054741;28;19927;-75
2022/07/16 01:16:21;;;;;;;;;;;17.70;80.70;;;;;;5055914;28;20366;-75
2022/07/16 01:18:49;;;;;;;;;;;17.70;80.90;;;;;;5055255;28;19928;-75
2022/07/16 01:21:17;;;;;;;;;;;17.60;80.60;;;;;;5054345;28;19920;-75
2022/07/16 01:23:45;;;;;;;;;;;17.00;80.50;;;;;;5056100;28;20289;-76
2022/07/16 01:26:13;;;;;;;;;;;17.50;81.40;;;;;;5055517;28;19924;-75
2022/07/16 01:28:41;;;;;;;;;;;17.50;81.10;;;;;;5037856;28;20232;-75
2022/07/16 01:31:08;;;;;;;;;;;17.50;81.10;;;;;;5056118;28;19928;-75
2022/07/16 01:33:37;;;;;;;;;;;17.50;81.40;;;;;;5054195;28;20355;-75
2022/07/16 01:36:04;;;;;;;;;;;17.50;81.30;;;;;;5043008;28;19928;-75
2022/07/16 01:38:32;;;;;;;;;;;17.50;81.60;;;;;;5018596;28;19925;-75
2022/07/16 01:41:00;;;;;;;;;;;17.40;81.70;;;;;;5035095;28;20352;-76
2022/07/16 01:43:28;;;;;;;;;;;17.40;81.90;;;;;;5035999;28;19921;-75
2022/07/16 01:45:56;;;;;;;;;;;17.40;81.70;;;;;;5036064;28;19928;-75
2022/07/16 01:48:24;;;;;;;;;;;17.30;82.10;;;;;;5017087;28;20339;-75
2022/07/16 01:50:51;;;;;;;;;;;17.30;81.70;;;;;;5035869;28;19921;-75
2022/07/16 01:53:19;;;;;;;;;;;17.30;82.30;;;;;;5019193;28;19921;-75
2022/07/16 01:55:46;;;;;;;;;;;17.20;82.20;;;;;;5016971;28;19921;-76
2022/07/16 01:58:14;;;;;;;;;;;17.10;82.60;;;;;;5002157;28;19921;-75
2022/07/16 02:00:43;;;;;;;;;;;17.10;82.90;;;;;;5017238;28;19920;-75
2022/07/16 02:03:10;;;;;;;;;;;17.10;82.90;;;;;;5017754;28;19931;-75
2022/07/16 02:05:38;;;;;;;;;;;17.10;83.10;;;;;;5001909;28;19932;-75
2022/07/16 02:08:05;;;;;;;;;;;17.10;83.00;;;;;;5016900;28;19928;-75
2022/07/16 02:10:34;;;;;;;;;;;17.00;83.00;;;;;;5017912;28;19965;-75
2022/07/16 02:13:02;;;;;;;;;;;17.00;83.30;;;;;;5001536;28;20267;-75
2022/07/16 02:15:30;;;;;;;;;;;16.90;83.20;;;;;;5034413;28;19921;-75
2022/07/16 02:17:57;;;;;;;;;;;17.00;83.10;;;;;;5001984;28;19921;-75
2022/07/16 02:20:25;;;;;;;;;;;17.00;83.50;;;;;;5016869;28;19921;-75
2022/07/16 02:22:54;;;;;;;;;;;17.00;83.60;;;;;;5035676;28;19928;-75
2022/07/16 02:25:21;;;;;;;;;;;16.90;83.60;;;;;;5002007;28;19921;-75
2022/07/16 02:28:07;;;;;;;;;;;16.90;84.10;;;;;;5034151;28;19928;-75
2022/07/16 02:30:37;;;;;;;;;;;16.80;83.80;;;;;;5017671;28;20344;-75
2022/07/16 02:33:05;;;;;;;;;;;16.80;83.80;;;;;;5018292;28;20367;-75
2022/07/16 02:35:32;;;;;;;;;;;16.80;84.20;;;;;;5033749;28;19921;-75
2022/07/16 02:38:00;;;;;;;;;;;16.80;84.20;;;;;;5018111;28;19921;-75
2022/07/16 02:40:27;;;;;;;;;;;16.70;84.20;;;;;;5016927;28;19929;-75
2022/07/16 02:42:55;;;;;;;;;;;16.70;84.40;;;;;;5034957;28;19932;-75
2022/07/16 02:45:23;;;;;;;;;;;16.70;84.80;;;;;;5018093;28;19921;-76
2022/07/16 02:47:51;;;;;;;;;;;16.70;84.20;;;;;;5033609;28;19947;-75
2022/07/16 02:50:18;;;;;;;;;;;16.70;84.70;;;;;;5017602;28;20353;-75
2022/07/16 02:52:46;;;;;;;;;;;16.60;85.50;;;;;;5017918;28;20287;-75
2022/07/16 02:55:13;;;;;;;;;;;16.60;84.80;;;;;;5033940;28;20275;-75
2022/07/16 02:57:40;;;;;;;;;;;16.60;84.90;;;;;;5017480;28;19921;-75
2022/07/16 03:00:09;;;;;;;;;;;16.60;85.10;;;;;;5017584;28;19920;-75
2022/07/16 03:02:37;;;;;;;;;;;16.60;85.70;;;;;;5017401;28;19920;-75
2022/07/16 03:05:05;;;;;;;;;;;16.60;85.30;;;;;;5017598;28;20255;-75
2022/07/16 03:07:33;;;;;;;;;;;16.50;85.50;;;;;;5033832;28;20267;-75
2022/07/16 03:10:00;;;;;;;;;;;16.50;85.20;;;;;;5034717;28;20355;-75
2022/07/16 03:12:27;;;;;;;;;;;16.50;85.10;;;;;;5000954;28;19921;-75
2022/07/16 03:14:55;;;;;;;;;;;16.50;86.00;;;;;;5002626;28;19943;-75
2022/07/16 03:17:23;;;;;;;;;;;16.50;85.60;;;;;;5021146;28;19921;-75
2022/07/16 03:19:50;;;;;;;;;;;15.90;85.10;;;;;;5038608;28;19921;-75
2022/07/16 03:22:18;;;;;;;;;;;16.40;85.60;;;;;;5020119;28;19932;-75
2022/07/16 03:24:45;;;;;;;;;;;16.40;85.80;;;;;;5038292;28;19928;-75
2022/07/16 03:27:13;;;;;;;;;;;16.40;85.60;;;;;;5019971;28;19921;-75
2022/07/16 03:29:40;;;;;;;;;;;16.30;86.10;;;;;;5038330;28;19928;-76
2022/07/16 03:32:07;;;;;;;;;;;16.30;85.90;;;;;;5021531;28;19928;-75
2022/07/16 03:34:35;;;;;;;;;;;16.30;86.30;;;;;;5037141;28;19925;-75
2022/07/16 03:37:02;;;;;;;;;;;16.30;86.50;;;;;;5021097;28;20348;-76
2022/07/16 03:39:30;;;;;;;;;;;16.20;86.60;;;;;;5038002;28;19925;-75
2022/07/16 03:41:57;;;;;;;;;;;16.20;86.60;;;;;;5019988;28;19921;-75
2022/07/16 03:44:25;;;;;;;;;;;16.10;86.30;;;;;;5038420;28;19925;-75
2022/07/16 03:46:52;;;;;;;;;;;16.10;86.70;;;;;;5019667;28;19921;-76
2022/07/16 03:49:19;;;;;;;;;;;16.10;86.70;;;;;;5037945;28;20271;-76
2022/07/16 03:51:47;;;;;;;;;;;16.10;87.00;;;;;;5020423;28;20406;-75
2022/07/16 03:54:14;;;;;;;;;;;16.10;87.20;;;;;;5037000;28;19928;-76
2022/07/16 03:56:42;;;;;;;;;;;16.10;87.00;;;;;;5020602;28;20269;-75
2022/07/16 03:59:10;;;;;;;;;;;16.10;86.40;;;;;;5004513;28;19921;-75
2022/07/16 04:01:39;;;;;;;;;;;16.00;86.90;;;;;;5036828;28;19920;-75
2022/07/16 04:04:06;;;;;;;;;;;16.00;87.10;;;;;;5020378;28;19932;-75
2022/07/16 04:06:34;;;;;;;;;;;16.00;86.90;;;;;;5037528;28;19924;-75
2022/07/16 04:09:02;;;;;;;;;;;16.00;87.30;;;;;;5036461;28;19928;-76
2022/07/16 04:11:29;;;;;;;;;;;15.90;86.90;;;;;;5037430;28;19921;-75
2022/07/16 04:13:57;;;;;;;;;;;15.90;87.30;;;;;;5036803;28;19921;-75
2022/07/16 04:16:24;;;;;;;;;;;15.90;86.80;;;;;;5037580;28;19928;-75
2022/07/16 04:18:52;;;;;;;;;;;15.80;87.70;;;;;;5020428;28;19928;-75
2022/07/16 04:21:19;;;;;;;;;;;15.80;87.70;;;;;;5002630;28;19932;-76
2022/07/16 04:23:46;;;;;;;;;;;15.80;87.80;;;;;;5037410;28;19921;-76
2022/07/16 04:26:14;;;;;;;;;;;15.80;87.90;;;;;;5019792;28;19921;-75
2022/07/16 04:28:41;;;;;;;;;;;15.70;87.90;;;;;;5036154;28;20255;-75
2022/07/16 04:31:09;;;;;;;;;;;15.70;87.90;;;;;;5019825;28;19921;-75
2022/07/16 04:33:36;;;;;;;;;;;15.70;88.30;;;;;;5035928;28;19921;-75
2022/07/16 04:36:04;;;;;;;;;;;15.70;87.90;;;;;;5041107;28;19920;-76
2022/07/16 04:38:31;;;;;;;;;;;15.70;87.90;;;;;;5057217;28;19944;-75
2022/07/16 04:40:58;;;;;;;;;;;15.80;87.60;;;;;;5055086;28;19921;-75
2022/07/16 04:43:27;;;;;;;;;;;15.80;87.80;;;;;;5056115;28;19921;-76
2022/07/16 04:45:54;;;;;;;;;;;15.80;88.30;;;;;;5056151;28;19921;-75
2022/07/16 04:48:22;;;;;;;;;;;15.70;88.30;;;;;;5055415;28;19921;-75
2022/07/16 04:50:50;;;;;;;;;;;15.70;88.30;;;;;;5039547;28;19920;-75
2022/07/16 04:53:17;;;;;;;;;;;15.70;88.80;;;;;;5057057;28;20353;-76
2022/07/16 04:55:45;;;;;;;;;;;15.70;88.90;;;;;;5054858;28;20347;-75
2022/07/16 04:58:12;;;;;;;;;;;15.70;88.10;;;;;;5039314;28;19931;-75
2022/07/16 05:00:40;;;;;;;;;;;15.70;88.90;;;;;;5037762;28;19931;-75
2022/07/16 05:03:08;;;;;;;;;;;15.70;89.20;;;;;;5056097;28;19921;-75
2022/07/16 05:05:37;;;;;;;;;;;15.70;88.40;;;;;;5056523;28;20263;-75
2022/07/16 05:08:08;;;;;;;;;;;15.70;88.40;;;;;;5055180;28;19921;-76
2022/07/16 05:10:36;;;;;;;;;;;14.50;88.60;;;;;;5056452;28;19925;-75
2022/07/16 05:13:05;;;;;;;;;;;15.80;89.00;;;;;;5056237;28;20256;-75
2022/07/16 05:15:33;;;;;;;;;;;15.80;89.40;;;;;;5055240;28;19929;-76
2022/07/16 05:18:00;;;;;;;;;;;15.80;89.20;;;;;;5056124;28;19921;-76
2022/07/16 05:20:28;;;;;;;;;;;15.80;88.80;;;;;;5038057;28;19943;-75
2022/07/16 05:22:56;;;;;;;;;;;15.80;88.80;;;;;;5055412;28;19936;-75
2022/07/16 05:25:23;;;;;;;;;;;15.80;89.50;;;;;;5055631;28;19921;-75
2022/07/16 05:27:51;;;;;;;;;;;15.90;88.90;;;;;;5054687;28;19991;-75
2022/07/16 05:30:18;;;;;;;;;;;15.90;88.60;;;;;;5055674;28;19920;-75
2022/07/16 05:32:46;;;;;;;;;;;15.90;89.10;;;;;;5038634;28;20382;-75
2022/07/16 05:35:14;;;;;;;;;;;15.90;89.10;;;;;;5021005;28;19920;-75
2022/07/16 05:37:42;;;;;;;;;;;15.90;89.40;;;;;;5038087;28;19920;-75
2022/07/16 05:40:10;;;;;;;;;;;16.00;89.10;;;;;;5055868;28;19921;-75
2022/07/16 05:42:38;;;;;;;;;;;16.00;88.50;;;;;;5038137;28;19928;-75
2022/07/16 05:45:12;;;;;;;;;;;16.00;89.20;;;;;;5055757;28;19925;-75
2022/07/16 05:47:39;;;;;;;;;;;16.00;89.30;;;;;;5053732;28;20351;-75
2022/07/16 05:50:07;;;;;;;;;;;16.00;88.70;;;;;;5054789;28;19942;-75
2022/07/16 05:52:35;;;;;;;;;;;16.00;88.80;;;;;;5054525;28;19921;-75
2022/07/16 05:55:02;;;;;;;;;;;16.00;89.00;;;;;;5037394;28;19921;-75
2022/07/16 05:57:30;;;;;;;;;;;16.00;88.70;;;;;;5055760;28;20374;-76
2022/07/16 05:59:57;;;;;;;;;;;16.10;89.60;;;;;;5021382;28;19935;-75
2022/07/16 06:02:25;;;;;;;;;;;16.00;89.20;;;;;;5053396;28;20394;-75
2022/07/16 06:04:52;;;;;;;;;;;16.10;89.40;;;;;;5054605;28;19928;-75
2022/07/16 06:07:20;;;;;;;;;;;16.10;89.50;;;;;;5053368;28;19921;-75
2022/07/16 06:09:47;;;;;;;;;;;16.20;89.20;;;;;;5054875;28;19943;-75
2022/07/16 06:12:15;;;;;;;;;;;16.20;89.10;;;;;;5055123;28;19932;-75
2022/07/16 06:14:42;;;;;;;;;;;16.30;88.90;;;;;;5054351;28;19920;-75
2022/07/16 06:17:10;;;;;;;;;;;16.30;89.00;;;;;;5055421;28;19928;-75
2022/07/16 06:19:39;;;;;;;;;;;16.30;89.10;;;;;;5021321;28;19920;-75
2022/07/16 06:22:06;;;;;;;;;;;16.30;88.90;;;;;;5053110;28;19928;-75
2022/07/16 06:24:34;;;;;;;;;;;16.30;88.90;;;;;;5055244;28;19920;-75
2022/07/16 06:27:01;;;;;;;;;;;16.30;89.20;;;;;;5053625;28;19921;-75
2022/07/16 06:29:29;;;;;;;;;;;16.20;89.20;;;;;;5054423;28;19931;-75
2022/07/16 06:31:57;;;;;;;;;;;16.40;89.20;;;;;;5054340;28;20374;-75
2022/07/16 06:34:24;;;;;;;;;;;16.30;89.30;;;;;;5052975;28;20648;-75
2022/07/16 06:36:52;;;;;;;;;;;16.50;89.40;;;;;;5037456;28;19920;-75
2022/07/16 06:39:19;;;;;;;;;;;16.40;89.00;;;;;;5054353;28;19928;-75
2022/07/16 06:41:47;;;;;;;;;;;16.50;89.10;;;;;;5052955;28;19932;-76
2022/07/16 06:44:14;;;;;;;;;;;16.50;88.90;;;;;;5055157;28;19921;-75
2022/07/16 06:46:42;;;;;;;;;;;16.50;89.00;;;;;;5054974;28;19921;-75
2022/07/16 06:49:09;;;;;;;;;;;16.50;88.70;;;;;;5055599;28;19920;-75
2022/07/16 06:51:36;;;;;;;;;;;16.60;88.90;;;;;;5058171;28;19924;-75
2022/07/16 06:54:04;;;;;;;;;;;16.60;88.90;;;;;;5058088;28;20278;-75
2022/07/16 06:56:31;;;;;;;;;;;16.60;88.80;;;;;;5059166;28;19921;-76
2022/07/16 06:58:59;;;;;;;;;;;16.60;88.90;;;;;;5057973;28;19927;-76
2022/07/16 07:01:26;;;;;;;;;;;16.60;89.10;;;;;;5040200;28;19920;-75
2022/07/16 07:03:53;;;;;;;;;;;16.70;89.00;;;;;;5058447;28;20255;-75
2022/07/16 07:06:21;;;;;;;;;;;16.70;88.90;;;;;;5058162;28;19927;-75
2022/07/16 07:08:49;;;;;;;;;;;16.70;88.60;;;;;;5040368;28;19920;-76
2022/07/16 07:11:22;;;;;;;;;;;16.80;88.60;;;;;;5042215;28;19921;-75
2022/07/16 07:13:49;;;;;;;;;;;16.80;88.80;;;;;;5056786;28;19924;-75
2022/07/16 07:16:17;;;;;;;;;;;16.80;88.40;;;;;;5057585;28;19921;-75
2022/07/16 07:18:44;;;;;;;;;;;16.70;88.70;;;;;;5058659;28;19921;-75
2022/07/16 07:21:12;;;;;;;;;;;16.90;88.80;;;;;;5056373;28;19920;-74
2022/07/16 07:23:39;;;;;;;;;;;17.00;88.70;;;;;;5040920;28;19932;-73
2022/07/16 07:26:07;;;;;;;;;;;17.00;88.60;;;;;;5058352;28;19931;-73
2022/07/16 07:28:34;;;;;;;;;;;17.00;88.70;;;;;;5039581;28;19921;-73
2022/07/16 07:31:02;;;;;;;;;;;17.10;88.60;;;;;;5057227;28;19928;-74
2022/07/16 07:33:29;;;;;;;;;;;17.20;88.60;;;;;;5057331;28;19921;-73
2022/07/16 07:35:57;;;;;;;;;;;17.20;88.80;;;;;;5048322;28;19932;-73
2022/07/16 07:38:25;;;;;;;;;;;17.30;88.20;;;;;;5004649;28;20263;-74
2022/07/16 07:40:52;;;;;;;;;;;17.30;88.30;;;;;;5037139;28;19928;-73
2022/07/16 07:43:22;;;;;;;;;;;17.40;88.40;;;;;;5005085;28;19921;-73
2022/07/16 07:45:50;;;;;;;;;;;17.40;88.10;;;;;;5004613;28;19921;-73
2022/07/16 07:48:21;;;;;;;;;;;17.50;88.10;;;;;;5037025;28;19921;-73
2022/07/16 07:50:48;;;;;;;;;;;17.60;87.70;;;;;;5020413;28;19925;-73
2022/07/16 07:53:16;;;;;;;;;;;17.70;87.40;;;;;;5004405;28;20363;-73
2022/07/16 07:55:43;;;;;;;;;;;17.70;87.40;;;;;;5019299;28;19932;-73
2022/07/16 07:58:11;;;;;;;;;;;17.70;87.70;;;;;;5019994;28;19921;-74
2022/07/16 08:00:38;;;;;;;;;;;17.60;87.20;;;;;;5018476;28;20383;-74
2022/07/16 08:03:08;;;;;;;;;;;17.70;87.50;;;;;;4988309;28;19921;-74
2022/07/16 08:05:36;;;;;;;;;;;17.70;87.40;;;;;;5037404;28;19940;-73
2022/07/16 08:08:04;;;;;;;;;;;17.80;87.00;;;;;;5002670;28;19920;-74
2022/07/16 08:10:32;;;;;;;;;;;17.80;87.10;;;;;;5019815;28;19924;-74
2022/07/16 08:12:59;;;;;;;;;;;17.90;87.00;;;;;;5037013;28;20240;-74
2022/07/16 08:15:27;;;;;;;;;;;17.90;86.50;;;;;;5018934;28;19925;-73
2022/07/16 08:17:54;;;;;;;;;;;18.00;86.40;;;;;;5019882;28;19921;-74
2022/07/16 08:20:22;;;;;;;;;;;18.00;86.20;;;;;;5002579;28;19921;-73
2022/07/16 08:22:50;;;;;;;;;;;18.10;86.10;;;;;;5036927;28;19932;-73
2022/07/16 08:28:04;;;;;;;;;;;18.10;85.80;;;;;;5018637;28;19944;-73
2022/07/16 08:30:31;;;;;;;;;;;18.20;85.60;;;;;;5036891;28;19921;-74
2022/07/16 08:32:58;;;;;;;;;;;18.20;85.60;;;;;;5003577;28;20347;-74
2022/07/16 08:35:26;;;;;;;;;;;18.30;85.20;;;;;;5025682;28;19920;-74
2022/07/16 08:37:54;;;;;;;;;;;18.30;85.10;;;;;;5057343;28;19921;-74
2022/07/16 08:40:22;;;;;;;;;;;18.30;84.60;;;;;;5021953;28;19921;-74
2022/07/16 08:42:51;;;;;;;;;;;18.40;84.60;;;;;;5039336;28;19921;-74
2022/07/16 08:45:22;;;;;;;;;;;18.50;84.30;;;;;;5056908;28;19921;-74
2022/07/16 08:47:52;;;;;;;;;;;18.60;84.70;;;;;;5054922;28;19921;-74
2022/07/16 08:50:20;;;;;;;;;;;18.70;84.10;;;;;;5056162;28;19928;-74
2022/07/16 08:52:49;;;;;;;;;;;18.70;83.70;;;;;;5055541;28;20007;-74
2022/07/16 08:55:17;;;;;;;;;;;18.80;82.90;;;;;;5054747;28;19947;-74
2022/07/16 08:57:47;;;;;;;;;;;18.80;83.20;;;;;;5055821;28;19921;-74
2022/07/16 09:00:15;;;;;;;;;;;18.90;83.00;;;;;;5055231;28;19932;-74
2022/07/16 09:02:42;;;;;;;;;;;18.90;82.80;;;;;;5039548;28;19920;-74
2022/07/16 09:05:10;;;;;;;;;;;19.00;82.20;;;;;;5023245;28;19920;-74
2022/07/16 09:07:38;;;;;;;;;;;19.10;81.90;;;;;;5054326;28;19921;-76
2022/07/16 09:10:06;;;;;;;;;;;19.50;81.30;;;;;;5038869;28;19920;-74
2022/07/16 09:12:34;;;;;;;;;;;19.40;81.30;;;;;;5038081;28;19928;-74
2022/07/16 09:15:20;;;;;;;;;;;19.40;80.60;;;;;;5054351;28;19925;-75
2022/07/16 09:18:09;;;;;;;;;;;19.50;80.60;;;;;;5056609;28;20270;-75
2022/07/16 09:20:49;;;;;;;;;;;19.50;79.70;;;;;;5054521;28;19932;-75
2022/07/16 09:23:28;;;;;;;;;;;19.50;80.70;;;;;;5055054;28;19924;-75
2022/07/16 09:26:06;;;;;;;;;;;19.50;80.50;;;;;;5055568;28;19932;-75
2022/07/16 09:28:47;;;;;;;;;;;19.50;80.60;;;;;;5054959;28;19928;-75
2022/07/16 09:31:36;;;;;;;;;;;20.20;79.70;;;;;;5055234;28;19920;-75
2022/07/16 09:34:11;;;;;;;;;;;19.40;79.20;;;;;;5055317;28;19921;-75
2022/07/16 09:36:39;;;;;;;;;;;19.70;78.90;;;;;;5038349;28;19943;-77
2022/07/16 09:39:25;;;;;;;;;;;19.80;78.80;;;;;;5056049;28;19925;-76
2022/07/16 09:41:52;;;;;;;;;;;19.80;78.90;;;;;;5037125;28;19921;-76
2022/07/16 09:44:21;;;;;;;;;;;19.90;79.20;;;;;;5055447;28;19921;-76
2022/07/16 09:47:05;;;;;;;;;;;20.00;78.50;;;;;;5055074;28;19921;-74
2022/07/16 09:49:36;;;;;;;;;;;20.10;78.30;;;;;;5055066;28;19927;-74
2022/07/16 09:52:04;;;;;;;;;;;20.20;78.30;;;;;;5055693;28;19928;-74
2022/07/16 09:54:33;;;;;;;;;;;20.30;77.40;;;;;;5037441;28;20343;-75
2022/07/16 09:57:04;;;;;;;;;;;20.30;78.00;;;;;;5055564;28;19928;-75
2022/07/16 09:59:32;;;;;;;;;;;20.40;77.90;;;;;;5055778;28;19928;-78
2022/07/16 10:02:20;;;;;;;;;;;20.50;77.80;;;;;;5053901;28;20026;-77
2022/07/16 10:04:47;;;;;;;;;;;20.50;77.50;;;;;;5038072;28;19936;-76
2022/07/16 10:07:18;;;;;;;;;;;20.50;77.30;;;;;;5054250;28;19928;-76
2022/07/16 10:09:46;;;;;;;;;;;20.60;76.70;;;;;;5037999;28;19928;-73
2022/07/16 10:12:14;;;;;;;;;;;20.70;76.50;;;;;;5054659;28;19927;-73
2022/07/16 10:14:44;;;;;;;;;;;20.80;75.60;;;;;;5054392;28;19927;-74
2022/07/16 10:17:21;;;;;;;;;;;20.90;75.20;;;;;;5037825;28;20339;-76
2022/07/16 10:20:00;;;;;;;;;;;21.00;74.90;;;;;;5055161;28;19928;-80
2022/07/16 10:22:35;;;;;;;;;;;21.00;75.20;;;;;;5053121;28;19995;-80
2022/07/16 10:25:24;;;;;;;;;;;20.50;75.00;;;;;;5054843;28;19921;-69
2022/07/16 10:27:52;;;;;;;;;;;21.00;74.60;;;;;;5054607;28;19921;-67
2022/07/16 10:30:24;;;;;;;;;;;21.30;73.80;;;;;;5055113;28;19921;-69
2022/07/16 10:33:10;;;;;;;;;;;21.40;72.80;;;;;;5055460;28;19936;-67
2022/07/16 10:35:49;;;;;;;;;;;21.60;73.80;;;;;;5052973;28;19924;-67
2022/07/16 10:38:22;;;;;;;;;;;21.80;72.90;;;;;;5055003;28;19932;-67
2022/07/16 10:41:09;;;;;;;;;;;21.90;72.40;;;;;;5054599;28;19931;-67
2022/07/16 10:43:37;;;;;;;;;;;21.90;72.20;;;;;;5055107;28;19921;-74
2022/07/16 10:46:05;;;;;;;;;;;21.90;71.20;;;;;;5038187;28;19932;-69
2022/07/16 10:48:35;;;;;;;;;;;21.90;72.40;;;;;;5053994;28;19922;-73
2022/07/16 10:51:19;;;;;;;;;;;21.90;70.50;;;;;;5054954;28;19921;-72
2022/07/16 10:53:56;;;;;;;;;;;22.00;71.80;;;;;;5054136;28;19921;-73
2022/07/16 10:56:42;;;;;;;;;;;22.00;71.30;;;;;;5055551;28;19920;-64
2022/07/16 10:59:14;;;;;;;;;;;22.00;73.10;;;;;;5054219;28;19920;-72
2022/07/16 11:01:43;;;;;;;;;;;22.20;70.60;;;;;;5053113;28;19920;-72
2022/07/16 11:04:11;;;;;;;;;;;22.10;70.60;;;;;;5055107;28;20259;-73
2022/07/16 11:06:39;;;;;;;;;;;22.00;70.80;;;;;;5054088;28;19928;-72
2022/07/16 11:09:07;;;;;;;;;;;21.90;70.90;;;;;;5054272;28;20367;-72
2022/07/16 11:11:36;;;;;;;;;;;21.90;71.50;;;;;;5054481;28;20739;-73
2022/07/16 11:14:04;;;;;;;;;;;21.90;71.80;;;;;;5053777;28;19928;-71
2022/07/16 11:16:32;;;;;;;;;;;22.00;70.70;;;;;;5054708;28;19928;-71
2022/07/16 11:19:03;;;;;;;;;;;22.10;70.70;;;;;;5054790;28;19921;-72
2022/07/16 11:21:31;;;;;;;;;;;22.20;70.60;;;;;;5052872;28;20039;-71
2022/07/16 11:24:00;;;;;;;;;;;22.40;71.60;;;;;;5054469;28;19921;-69
2022/07/16 11:26:28;;;;;;;;;;;22.60;70.30;;;;;;5054912;28;19921;-70
2022/07/16 11:29:00;;;;;;;;;;;22.70;70.20;;;;;;5053382;28;19921;-71
2022/07/16 11:31:30;;;;;;;;;;;22.80;69.30;;;;;;5054882;28;19921;-71
2022/07/16 11:33:59;;;;;;;;;;;22.70;69.80;;;;;;5052581;28;19924;-69
2022/07/16 11:36:27;;;;;;;;;;;22.60;70.10;;;;;;5043799;28;19932;-70
2022/07/16 11:39:01;;;;;;;;;;;22.60;70.10;;;;;;5038340;28;19921;-70
2022/07/16 11:41:29;;;;;;;;;;;22.60;70.30;;;;;;5037048;28;19934;-70
2022/07/16 11:43:57;;;;;;;;;;;22.60;70.30;;;;;;5004906;28;19920;-64
2022/07/16 11:46:28;;;;;;;;;;;22.60;69.40;;;;;;5037959;28;19929;-68
2022/07/16 11:48:56;;;;;;;;;;;22.70;69.40;;;;;;5036801;28;19944;-68
2022/07/16 11:51:25;;;;;;;;;;;22.90;69.20;;;;;;5037829;28;19929;-68
2022/07/16 11:53:54;;;;;;;;;;;23.10;68.90;;;;;;5037107;28;20271;-68
2022/07/16 11:56:38;;;;;;;;;;;23.20;68.00;;;;;;5037928;28;19921;-68
2022/07/16 11:59:16;;;;;;;;;;;23.40;67.30;;;;;;5038058;28;19920;-68
2022/07/16 12:01:43;;;;;;;;;;;23.40;67.00;;;;;;5036726;28;19933;-68
2022/07/16 12:04:11;;;;;;;;;;;23.20;67.30;;;;;;5037787;28;19936;-68
2022/07/16 12:06:44;;;;;;;;;;;23.60;68.10;;;;;;5037635;28;19928;-68
2022/07/16 12:09:11;;;;;;;;;;;23.60;66.50;;;;;;5019183;28;19920;-69
2022/07/16 12:11:39;;;;;;;;;;;23.80;68.00;;;;;;5020156;28;20267;-68
2022/07/16 12:14:06;;;;;;;;;;;23.80;66.30;;;;;;5036370;28;20290;-69
2022/07/16 12:16:34;;;;;;;;;;;23.80;65.80;;;;;;5037474;28;20356;-69
2022/07/16 12:19:06;;;;;;;;;;;23.80;66.20;;;;;;5038004;28;19944;-69
2022/07/16 12:21:40;;;;;;;;;;;23.90;64.90;;;;;;5036430;28;20366;-68
2022/07/16 12:24:08;;;;;;;;;;;23.90;65.00;;;;;;5037689;28;20259;-68
2022/07/16 12:26:36;;;;;;;;;;;24.00;64.60;;;;;;5037388;28;19925;-68
2022/07/16 12:29:06;;;;;;;;;;;24.00;64.30;;;;;;5036164;28;19920;-68
2022/07/16 12:31:35;;;;;;;;;;;24.10;64.40;;;;;;5020151;28;19921;-68
2022/07/16 12:34:03;;;;;;;;;;;24.10;65.20;;;;;;5036401;28;19921;-67
2022/07/16 12:36:34;;;;;;;;;;;24.20;64.60;;;;;;5037066;28;19928;-67
2022/07/16 12:39:03;;;;;;;;;;;24.30;63.90;;;;;;5037232;28;19921;-67
2022/07/16 12:41:36;;;;;;;;;;;24.40;64.40;;;;;;5036227;28;19921;-67
2022/07/16 12:44:03;;;;;;;;;;;24.50;63.50;;;;;;5027702;28;19922;-67
2022/07/16 12:46:32;;;;;;;;;;;24.70;62.50;;;;;;5017003;28;19922;-68
2022/07/16 12:49:00;;;;;;;;;;;24.80;62.60;;;;;;5016222;28;19921;-67
2022/07/16 12:51:29;;;;;;;;;;;24.70;62.10;;;;;;5017128;28;19921;-67
2022/07/16 12:53:57;;;;;;;;;;;24.70;61.30;;;;;;5015661;28;19928;-67
2022/07/16 12:59:12;;;;;;;;;;;24.60;60.80;;;;;;5016955;28;19921;-67
2022/07/16 13:01:40;;;;;;;;;;;24.50;61.30;;;;;;5015680;28;19922;-68
2022/07/16 13:04:08;;;;;;;;;;;24.40;61.60;;;;;;5016785;28;19929;-67
2022/07/16 13:06:36;;;;;;;;;;;24.50;62.20;;;;;;5016859;28;19929;-67
2022/07/16 13:09:04;;;;;;;;;;;24.50;62.00;;;;;;5015645;28;19929;-68
2022/07/16 13:11:33;;;;;;;;;;;24.60;62.40;;;;;;5016697;28;19929;-67
2022/07/16 13:14:00;;;;;;;;;;;24.60;62.60;;;;;;5015686;28;19928;-69
2022/07/16 13:16:29;;;;;;;;;;;24.70;62.60;;;;;;5016707;28;19922;-70
2022/07/16 13:18:57;;;;;;;;;;;24.90;62.60;;;;;;5016743;28;19921;-68
2022/07/16 13:21:25;;;;;;;;;;;25.10;62.00;;;;;;5015440;28;20237;-68
2022/07/16 13:23:54;;;;;;;;;;;25.30;62.10;;;;;;4999420;28;19929;-67
2022/07/16 13:26:23;;;;;;;;;;;25.40;61.80;;;;;;5016333;28;19928;-71
2022/07/16 13:28:51;;;;;;;;;;;25.60;61.10;;;;;;5015141;28;20040;-69
2022/07/16 13:31:19;;;;;;;;;;;25.70;60.80;;;;;;5016249;28;19921;-68
2022/07/16 13:33:46;;;;;;;;;;;25.70;61.10;;;;;;5015242;28;20284;-68
2022/07/16 13:36:14;;;;;;;;;;;25.80;61.00;;;;;;5016012;28;19928;-68
2022/07/16 13:38:42;;;;;;;;;;;26.00;60.30;;;;;;5016279;28;19928;-68
2022/07/16 13:41:10;;;;;;;;;;;26.10;61.00;;;;;;5015067;28;19934;-73
2022/07/16 13:43:39;;;;;;;;;;;26.30;60.40;;;;;;4983044;28;20348;-70
2022/07/16 13:46:08;;;;;;;;;;;26.40;59.90;;;;;;5015788;28;19921;-67
2022/07/16 13:48:36;;;;;;;;;;;26.50;59.40;;;;;;4997807;28;19921;-67
2022/07/16 13:51:03;;;;;;;;;;;26.70;58.00;;;;;;5016096;28;19922;-67
2022/07/16 13:53:51;;;;;;;;;;;26.80;58.70;;;;;;5014729;28;20197;-68
2022/07/16 13:56:18;;;;;;;;;;;27.00;58.80;;;;;;5016092;28;19932;-69
2022/07/16 13:58:48;;;;;;;;;;;27.10;59.10;;;;;;5015662;28;19921;-68
2022/07/16 14:01:18;;;;;;;;;;;27.20;58.20;;;;;;5014825;28;19932;-68
2022/07/16 14:03:46;;;;;;;;;;;27.40;57.50;;;;;;5035908;28;19921;-68
2022/07/16 14:06:14;;;;;;;;;;;27.50;57.30;;;;;;5035067;28;20255;-69
2022/07/16 14:08:43;;;;;;;;;;;27.60;59.90;;;;;;5016981;28;19925;-68
2022/07/16 14:11:10;;;;;;;;;;;27.50;60.00;;;;;;5018152;28;19925;-68
2022/07/16 14:13:38;;;;;;;;;;;27.50;57.10;;;;;;5033433;28;19940;-68
2022/07/16 14:16:05;;;;;;;;;;;27.70;57.00;;;;;;5034855;28;19928;-68
2022/07/16 14:18:33;;;;;;;;;;;27.90;57.10;;;;;;5035202;28;20275;-68
2022/07/16 14:21:02;;;;;;;;;;;28.00;56.80;;;;;;5034158;28;19925;-68
2022/07/16 14:23:29;;;;;;;;;;;28.20;60.10;;;;;;5035275;28;19932;-68
2022/07/16 14:25:57;;;;;;;;;;;28.30;61.80;;;;;;5035702;28;20259;-68
2022/07/16 14:28:26;;;;;;;;;;;28.30;61.60;;;;;;5033301;28;19921;-68
2022/07/16 14:30:54;;;;;;;;;;;28.30;61.20;;;;;;5034676;28;20279;-68
2022/07/16 14:33:22;;;;;;;;;;;28.30;61.70;;;;;;5034930;28;19928;-68